Time;durP1;ratioP1;P1;durP2;ratioP2;P2;SDS_P1;SDS_P2;PMS_P1;PMS_P2;Temp;Humidity;BMP_temperature;BMP_pressure;BME280_temperature;BME280_humidity;BME280_pressure;Samples;Min_cycle;Max_cycle;Signal;HPM_P1;HPM_P2
2022/03/31 00:00:34;;;;;;;7.38;4.35;;;6.70;75.60;;;;;;5065128;28;20555;-66
2022/03/31 00:03:07;;;;;;;8.90;4.78;;;6.80;75.70;;;;;;5065340;28;20115;-66
2022/03/31 00:05:34;;;;;;;9.57;4.38;;;6.80;75.60;;;;;;5063119;28;20056;-67
2022/03/31 00:08:04;;;;;;;11.65;4.70;;;6.80;75.60;;;;;;5044494;28;20049;-67
2022/03/31 00:10:32;;;;;;;10.60;5.22;;;6.80;75.50;;;;;;5059052;28;20079;-66
2022/03/31 00:13:01;;;;;;;8.50;4.05;;;6.80;75.50;;;;;;5058565;28;20047;-66
2022/03/31 00:15:30;;;;;;;11.43;4.65;;;6.70;75.60;;;;;;5059988;28;20040;-66
2022/03/31 00:17:59;;;;;;;10.85;5.47;;;6.70;75.80;;;;;;5062502;28;20202;-66
2022/03/31 00:20:27;;;;;;;11.40;4.53;;;6.70;75.80;;;;;;5059768;28;20064;-66
2022/03/31 00:22:55;;;;;;;10.93;5.20;;;6.70;75.80;;;;;;5059216;28;20062;-66
2022/03/31 00:25:23;;;;;;;11.48;5.50;;;6.70;75.80;;;;;;5057261;28;20044;-67
2022/03/31 00:27:50;;;;;;;9.82;4.85;;;6.60;75.90;;;;;;5056262;28;20044;-68
2022/03/31 00:30:17;;;;;;;9.32;4.30;;;6.60;75.80;;;;;;5053319;28;20132;-66
2022/03/31 00:32:45;;;;;;;8.07;3.70;;;6.60;75.80;;;;;;5061405;28;20417;-67
2022/03/31 00:35:13;;;;;;;7.15;3.53;;;6.60;75.90;;;;;;5059127;28;20456;-66
2022/03/31 00:37:41;;;;;;;9.35;4.35;;;6.50;75.90;;;;;;5056821;28;20060;-65
2022/03/31 00:40:10;;;;;;;8.93;4.45;;;6.40;76.00;;;;;;5060651;28;20697;-67
2022/03/31 00:42:41;;;;;;;8.05;3.80;;;6.40;76.10;;;;;;5056105;28;20091;-68
2022/03/31 00:45:16;;;;;;;10.20;4.47;;;6.40;76.10;;;;;;5066471;28;20068;-66
2022/03/31 00:47:44;;;;;;;10.20;4.53;;;6.40;75.80;;;;;;5066809;28;20391;-67
2022/03/31 00:50:13;;;;;;;9.75;4.40;;;6.40;75.70;;;;;;5061629;28;20032;-66
2022/03/31 00:52:40;;;;;;;9.98;4.60;;;6.40;75.80;;;;;;5061633;28;20049;-66
2022/03/31 00:55:10;;;;;;;11.48;4.72;;;6.40;75.70;;;;;;5059017;28;20036;-68
2022/03/31 00:57:37;;;;;;;12.02;5.10;;;6.30;75.80;;;;;;5058595;28;20049;-67
2022/03/31 01:00:08;;;;;;;10.45;4.85;;;6.30;75.80;;;;;;5062670;28;20521;-68
2022/03/31 01:02:35;;;;;;;;;;;6.30;75.70;;;;;;5065807;28;21162;-68
2022/03/31 01:05:03;;;;;;;7.57;4.10;;;6.30;75.70;;;;;;5058662;28;19929;-66
2022/03/31 01:07:35;;;;;;;14.65;5.22;;;6.40;75.70;;;;;;5051512;28;20155;-66
2022/03/31 01:10:02;;;;;;;10.68;4.78;;;6.30;75.70;;;;;;5056076;28;20040;-65
2022/03/31 01:12:29;;;;;;;13.75;5.45;;;6.30;75.90;;;;;;5064994;28;20503;-66
2022/03/31 01:15:10;;;;;;;11.57;5.07;;;6.30;76.00;;;;;;5066304;28;20041;-66
2022/03/31 01:17:40;;;;;;;11.50;5.13;;;6.30;75.80;;;;;;5065336;28;20095;-66
2022/03/31 01:20:10;;;;;;;10.23;4.63;;;6.20;76.00;;;;;;5060280;28;20064;-66
2022/03/31 01:22:39;;;;;;;8.60;4.32;;;6.20;75.90;;;;;;5065097;28;20044;-65
2022/03/31 01:25:09;;;;;;;10.50;4.65;;;6.20;76.10;;;;;;5057380;28;20117;-66
2022/03/31 01:27:38;;;;;;;10.45;5.28;;;6.20;76.00;;;;;;5060801;28;20452;-66
2022/03/31 01:30:07;;;;;;;9.13;5.00;;;6.20;76.10;;;;;;5059521;28;20048;-68
2022/03/31 01:32:34;;;;;;;12.85;4.75;;;6.20;76.00;;;;;;5056553;28;20040;-66
2022/03/31 01:35:01;;;;;;;12.60;5.22;;;6.20;76.10;;;;;;5056047;28;20033;-68
2022/03/31 01:37:28;;;;;;;9.38;4.63;;;6.20;76.00;;;;;;5058097;28;20043;-66
2022/03/31 01:39:55;;;;;;;11.93;5.20;;;6.20;76.20;;;;;;5062497;28;20052;-68
2022/03/31 01:42:24;;;;;;;11.68;4.80;;;6.20;76.00;;;;;;5042441;28;20725;-68
2022/03/31 01:44:52;;;;;;;11.55;5.00;;;6.20;76.00;;;;;;5063761;28;20541;-65
2022/03/31 01:47:19;;;;;;;10.98;5.20;;;6.20;76.00;;;;;;5061479;28;20095;-69
2022/03/31 01:49:46;;;;;;;12.13;5.32;;;6.20;76.00;;;;;;5060278;28;20048;-67
2022/03/31 01:52:14;;;;;;;12.45;5.10;;;6.20;76.00;;;;;;5063786;28;20163;-66
2022/03/31 01:54:42;;;;;;;8.23;4.30;;;6.10;76.10;;;;;;5055846;28;20429;-67
2022/03/31 01:57:09;;;;;;;10.55;5.30;;;6.10;76.10;;;;;;5058296;28;20187;-66
2022/03/31 01:59:40;;;;;;;11.57;5.80;;;6.10;75.90;;;;;;5058395;28;20072;-67
2022/03/31 02:02:09;;;;;;;10.98;4.95;;;6.10;76.00;;;;;;5055848;28;20036;-66
2022/03/31 02:04:36;;;;;;;12.55;5.18;;;6.10;76.00;;;;;;5055565;28;20123;-65
2022/03/31 02:07:04;;;;;;;9.77;4.38;;;6.10;76.00;;;;;;5054224;28;20040;-65
2022/03/31 02:09:31;;;;;;;13.30;4.70;;;6.00;76.00;;;;;;5060690;28;20044;-65
2022/03/31 02:11:58;;;;;;;10.52;4.32;;;6.00;75.90;;;;;;5063226;28;20040;-67
2022/03/31 02:14:25;;;;;;;9.85;5.05;;;6.10;75.90;;;;;;5058709;28;20052;-68
2022/03/31 02:16:55;;;;;;;10.85;5.38;;;6.00;75.90;;;;;;5058601;28;20560;-68
2022/03/31 02:19:22;;;;;;;12.02;5.55;;;6.00;75.90;;;;;;5059765;28;20041;-66
2022/03/31 02:21:50;;;;;;;10.68;5.10;;;5.90;75.90;;;;;;5060698;28;20051;-65
2022/03/31 02:24:18;;;;;;;12.82;5.45;;;5.80;76.00;;;;;;5056240;28;20068;-67
2022/03/31 02:26:45;;;;;;;13.15;5.25;;;5.80;76.10;;;;;;5059068;28;20060;-68
2022/03/31 02:29:12;;;;;;;11.77;4.53;;;5.80;76.10;;;;;;5063669;28;20513;-68
2022/03/31 02:31:39;;;;;;;9.38;4.55;;;5.70;76.20;;;;;;5063079;28;20101;-67
2022/03/31 02:34:08;;;;;;;11.80;5.07;;;5.70;76.30;;;;;;5061063;28;20067;-65
2022/03/31 02:36:35;;;;;;;12.13;5.20;;;5.70;76.30;;;;;;5062212;28;20051;-68
2022/03/31 02:39:04;;;;;;;11.43;5.00;;;5.70;76.20;;;;;;5048697;28;21619;-66
2022/03/31 02:41:31;;;;;;;8.82;4.45;;;5.70;76.10;;;;;;5063708;28;20048;-67
2022/03/31 02:43:58;;;;;;;11.77;5.28;;;5.70;76.10;;;;;;5059837;28;20068;-65
2022/03/31 02:46:27;;;;;;;11.23;4.22;;;5.70;76.10;;;;;;5071850;28;20099;-65
2022/03/31 02:48:58;;;;;;;11.80;5.07;;;5.80;76.00;;;;;;5068698;28;20083;-65
2022/03/31 02:51:27;;;;;;;11.18;5.25;;;5.80;75.90;;;;;;5063380;28;20076;-66
2022/03/31 02:56:39;;;;;;;9.45;5.55;;;5.70;75.90;;;;;;5063495;28;20071;-66
2022/03/31 02:59:07;;;;;;;8.48;4.90;;;5.70;75.90;;;;;;5070440;28;20397;-66
2022/03/31 03:01:34;;;;;;;8.80;4.63;;;5.70;75.90;;;;;;5068333;28;20060;-65
2022/03/31 03:04:01;;;;;;;11.02;5.82;;;5.60;75.90;;;;;;5068916;28;20044;-65
2022/03/31 03:06:30;;;;;;;9.23;4.07;;;5.60;76.10;;;;;;5062731;28;20066;-65
2022/03/31 03:08:57;;;;;;;13.02;5.45;;;5.60;76.00;;;;;;5062001;28;21256;-65
2022/03/31 03:11:25;;;;;;;9.57;4.57;;;5.50;76.10;;;;;;5061418;28;20585;-66
2022/03/31 03:13:52;;;;;;;9.40;4.28;;;5.50;76.10;;;;;;5059234;28;20060;-65
2022/03/31 03:16:20;;;;;;;10.48;4.65;;;5.50;76.10;;;;;;5063965;28;20047;-66
2022/03/31 03:18:47;;;;;;;9.52;3.75;;;5.40;76.20;;;;;;5061400;28;20059;-66
2022/03/31 03:21:14;;;;;;;12.32;4.45;;;5.40;76.20;;;;;;5071583;28;20041;-67
2022/03/31 03:23:43;;;;;;;8.85;4.30;;;5.50;76.20;;;;;;5060123;28;20036;-67
2022/03/31 03:26:10;;;;;;;10.60;4.45;;;5.40;76.40;;;;;;5066511;28;20041;-65
2022/03/31 03:28:37;;;;;;;13.30;5.30;;;5.40;76.50;;;;;;5063765;28;20048;-66
2022/03/31 03:31:04;;;;;;;7.30;3.45;;;5.40;76.60;;;;;;5067391;28;20036;-67
2022/03/31 03:33:35;;;;;;;12.05;4.45;;;5.50;76.60;;;;;;5068540;28;20050;-65
2022/03/31 03:36:04;;;;;;;9.30;4.28;;;5.40;76.60;;;;;;5070666;28;20086;-65
2022/03/31 03:38:32;;;;;;;11.85;5.50;;;5.50;76.70;;;;;;5070356;28;20052;-68
2022/03/31 03:41:00;;;;;;;14.63;5.50;;;5.40;76.80;;;;;;5070565;28;20127;-66
2022/03/31 03:43:28;;;;;;;11.35;4.43;;;5.40;76.80;;;;;;5069551;28;20477;-66
2022/03/31 03:45:55;;;;;;;11.25;5.25;;;5.50;76.60;;;;;;5065794;28;20076;-66
2022/03/31 03:48:22;;;;;;;13.00;5.90;;;5.50;76.50;;;;;;5060272;28;20052;-66
2022/03/31 03:50:49;;;;;;;12.18;5.47;;;5.50;76.50;;;;;;5063716;28;20040;-68
2022/03/31 03:53:16;;;;;;;11.80;4.97;;;5.60;76.40;;;;;;5063307;28;20502;-66
2022/03/31 03:55:46;;;;;;;8.85;4.82;;;5.60;76.20;;;;;;5056986;28;20064;-66
2022/03/31 03:58:14;;;;;;;9.98;4.55;;;5.60;76.20;;;;;;5058186;28;20062;-66
2022/03/31 04:00:41;;;;;;;10.30;4.72;;;5.60;76.10;;;;;;5059407;28;20052;-65
2022/03/31 04:03:09;;;;;;;7.80;4.15;;;5.60;76.20;;;;;;5064551;28;20040;-68
2022/03/31 04:05:36;;;;;;;14.48;5.68;;;5.60;76.10;;;;;;5067311;28;20051;-68
2022/03/31 04:08:06;;;;;;;14.73;5.32;;;5.60;76.00;;;;;;5069016;28;20056;-65
2022/03/31 04:10:34;;;;;;;15.07;5.60;;;5.60;76.10;;;;;;5047654;28;20044;-66
2022/03/31 04:13:02;;;;;;;11.63;5.13;;;5.50;76.20;;;;;;5067621;28;20120;-69
2022/03/31 04:15:30;;;;;;;14.07;5.70;;;5.50;76.20;;;;;;5068411;28;20477;-66
2022/03/31 04:17:57;;;;;;;12.30;5.20;;;5.60;76.30;;;;;;5068088;28;20470;-66
2022/03/31 04:20:24;;;;;;;10.13;4.97;;;5.60;76.10;;;;;;5066398;28;20043;-66
2022/03/31 04:22:51;;;;;;;11.02;5.47;;;5.60;76.10;;;;;;5068967;28;20051;-66
2022/03/31 04:25:18;;;;;;;14.88;6.30;;;5.60;76.10;;;;;;5068064;28;20039;-67
2022/03/31 04:27:45;;;;;;;9.82;4.10;;;5.60;76.10;;;;;;5067433;28;20052;-65
2022/03/31 04:30:13;;;;;;;13.18;4.45;;;5.60;76.10;;;;;;5064820;28;21259;-66
2022/03/31 04:32:41;;;;;;;13.57;4.43;;;5.60;76.00;;;;;;5068547;28;20482;-65
2022/03/31 04:35:10;;;;;;;13.90;5.55;;;5.50;76.10;;;;;;5068979;28;20040;-67
2022/03/31 04:37:38;;;;;;;14.30;5.90;;;5.50;76.20;;;;;;5068524;28;20060;-67
2022/03/31 04:40:06;;;;;;;13.25;5.10;;;5.50;76.30;;;;;;5067420;28;20044;-65
2022/03/31 04:42:33;;;;;;;11.95;5.40;;;5.50;76.20;;;;;;5065932;28;20102;-68
2022/03/31 04:45:02;;;;;;;11.63;6.05;;;5.60;76.20;;;;;;5068445;28;20057;-67
2022/03/31 04:47:29;;;;;;;13.73;6.20;;;5.60;76.30;;;;;;5068837;28;20121;-67
2022/03/31 04:49:58;;;;;;;13.07;5.68;;;5.60;76.20;;;;;;5067441;28;20536;-64
2022/03/31 04:52:25;;;;;;;15.32;5.40;;;5.60;76.20;;;;;;5068570;28;20120;-67
2022/03/31 04:54:51;;;;;;;12.07;5.32;;;5.60;76.10;;;;;;5069698;28;20122;-69
2022/03/31 04:57:20;;;;;;;11.18;5.45;;;5.60;76.00;;;;;;5067982;28;20048;-65
2022/03/31 04:59:47;;;;;;;10.93;5.60;;;5.60;76.00;;;;;;5070452;28;20044;-65
2022/03/31 05:02:14;;;;;;;13.68;4.95;;;5.60;76.10;;;;;;5065688;28;20051;-66
2022/03/31 05:04:41;;;;;;;13.70;5.55;;;5.50;76.20;;;;;;5070700;28;20060;-67
2022/03/31 05:07:10;;;;;;;14.57;5.63;;;5.60;76.20;;;;;;5067415;28;20040;-67
2022/03/31 05:09:37;;;;;;;14.82;7.28;;;5.60;76.30;;;;;;5069576;28;20041;-68
2022/03/31 05:12:05;;;;;;;12.70;5.22;;;5.70;76.10;;;;;;5038841;28;20044;-67
2022/03/31 05:14:32;;;;;;;14.38;5.75;;;5.70;76.00;;;;;;5062179;28;20060;-66
2022/03/31 05:17:03;;;;;;;13.55;5.47;;;5.70;76.00;;;;;;5065534;28;20119;-66
2022/03/31 05:19:30;;;;;;;12.73;5.95;;;5.70;76.00;;;;;;5066224;28;20047;-67
2022/03/31 05:21:57;;;;;;;12.23;6.45;;;5.70;76.00;;;;;;5067526;28;20051;-64
2022/03/31 05:24:26;;;;;;;16.50;6.80;;;5.70;76.00;;;;;;5058374;28;20049;-67
2022/03/31 05:26:53;;;;;;;12.93;5.60;;;5.70;75.90;;;;;;5054372;28;20113;-66
2022/03/31 05:29:20;;;;;;;12.43;5.60;;;5.70;75.90;;;;;;5058287;28;20097;-66
2022/03/31 05:31:47;;;;;;;9.52;5.43;;;5.70;75.90;;;;;;5060300;28;20040;-67
2022/03/31 05:34:14;;;;;;;13.90;6.10;;;5.70;76.00;;;;;;5060952;28;20047;-66
2022/03/31 05:36:41;;;;;;;12.73;5.65;;;5.80;75.90;;;;;;5059653;28;20045;-65
2022/03/31 05:39:08;;;;;;;11.38;6.03;;;5.80;75.70;;;;;;5060118;28;20152;-68
2022/03/31 05:41:37;;;;;;;16.30;5.35;;;5.80;75.70;;;;;;5059621;28;20040;-66
2022/03/31 05:44:05;;;;;;;13.30;5.38;;;5.80;75.80;;;;;;5060436;28;20119;-65
2022/03/31 05:46:32;;;;;;;11.90;5.15;;;5.80;75.80;;;;;;5056083;28;20045;-65
2022/03/31 05:48:59;;;;;;;13.25;5.28;;;5.80;75.90;;;;;;5059332;28;20047;-66
2022/03/31 05:51:26;;;;;;;11.50;5.82;;;5.90;75.80;;;;;;5060905;28;20052;-66
2022/03/31 05:53:53;;;;;;;13.18;5.85;;;5.80;75.70;;;;;;5059749;28;20044;-68
2022/03/31 05:56:20;;;;;;;12.02;5.50;;;5.90;75.70;;;;;;5057323;28;20028;-67
2022/03/31 05:58:49;;;;;;;14.65;5.70;;;5.90;75.80;;;;;;5057549;28;20043;-66
2022/03/31 06:01:17;;;;;;;12.23;5.63;;;5.90;75.80;;;;;;5033524;28;20040;-66
2022/03/31 06:03:44;;;;;;;10.77;5.55;;;5.90;75.90;;;;;;5062459;28;20037;-66
2022/03/31 06:06:11;;;;;;;12.25;5.07;;;5.90;76.00;;;;;;5064753;28;20497;-67
2022/03/31 06:08:38;;;;;;;16.63;6.55;;;6.00;76.10;;;;;;5064255;28;20120;-67
2022/03/31 06:11:05;;;;;;;13.93;5.28;;;6.00;76.00;;;;;;5065195;28;20121;-69
2022/03/31 06:13:32;;;;;;;12.23;6.05;;;6.10;75.90;;;;;;5066147;28;20052;-66
2022/03/31 06:16:00;;;;;;;11.57;5.55;;;6.10;75.60;;;;;;5065242;28;20516;-67
2022/03/31 06:18:28;;;;;;;13.13;5.55;;;6.10;75.60;;;;;;5063963;28;20048;-66
2022/03/31 06:20:55;;;;;;;14.50;6.65;;;6.10;75.40;;;;;;5055119;28;20059;-66
2022/03/31 06:23:22;;;;;;;18.77;6.40;;;6.10;75.50;;;;;;5060916;28;20036;-67
2022/03/31 06:25:51;;;;;;;13.27;5.50;;;6.10;75.50;;;;;;5057003;28;20049;-68
2022/03/31 06:28:19;;;;;;;18.63;6.55;;;6.10;75.50;;;;;;5060014;28;20159;-68
2022/03/31 06:30:47;;;;;;;15.90;7.15;;;6.20;75.20;;;;;;5060948;28;20040;-66
2022/03/31 06:33:16;;;;;;;12.40;5.22;;;6.20;75.00;;;;;;5060349;28;20036;-67
2022/03/31 06:35:44;;;;;;;13.77;5.97;;;6.20;75.00;;;;;;5057166;28;20068;-66
2022/03/31 06:38:11;;;;;;;13.90;5.80;;;6.20;75.00;;;;;;5059954;28;20136;-66
2022/03/31 06:40:40;;;;;;;12.77;5.07;;;6.30;74.80;;;;;;5060663;28;20525;-66
2022/03/31 06:43:07;;;;;;;15.82;6.03;;;6.30;74.80;;;;;;5060925;28;20051;-66
2022/03/31 06:45:35;;;;;;;9.85;4.35;;;6.30;74.80;;;;;;5060595;28;20040;-66
2022/03/31 06:48:04;;;;;;;15.63;5.95;;;6.30;74.60;;;;;;5068578;28;20044;-65
2022/03/31 06:50:34;;;;;;;13.20;5.90;;;6.20;74.70;;;;;;5067022;28;20131;-67
2022/03/31 06:53:02;;;;;;;13.93;5.72;;;6.30;74.70;;;;;;5060488;28;20044;-67
2022/03/31 06:55:30;;;;;;;12.98;5.22;;;6.20;74.70;;;;;;5059853;28;20043;-66
2022/03/31 06:57:57;;;;;;;17.17;6.45;;;6.40;74.60;;;;;;5058387;28;20494;-66
2022/03/31 07:00:24;;;;;;;18.48;6.22;;;6.40;74.50;;;;;;5061547;28;20045;-66
2022/03/31 07:02:51;;;;;;;13.73;5.45;;;6.40;74.50;;;;;;5065100;28;20051;-67
2022/03/31 07:05:18;;;;;;;12.65;5.53;;;6.50;74.40;;;;;;5062350;28;20058;-68
2022/03/31 07:07:47;;;;;;;14.38;6.38;;;6.50;74.40;;;;;;5066386;28;20051;-68
2022/03/31 07:10:14;;;;;;;11.75;5.55;;;6.50;74.30;;;;;;5061051;28;20076;-65
2022/03/31 07:12:41;;;;;;;14.40;6.25;;;6.60;74.10;;;;;;5067481;28;20052;-66
2022/03/31 07:15:09;;;;;;;12.90;5.75;;;6.60;74.00;;;;;;5062348;28;20041;-66
2022/03/31 07:17:37;;;;;;;12.25;6.32;;;6.60;74.00;;;;;;5061430;28;23237;-66
2022/03/31 07:20:04;;;;;;;14.70;5.55;;;6.60;74.10;;;;;;5062116;28;20044;-66
2022/03/31 07:22:32;;;;;;;13.10;5.15;;;6.60;74.20;;;;;;5061573;28;20581;-66
2022/03/31 07:25:01;;;;;;;14.93;6.53;;;6.60;74.30;;;;;;5060975;28;20531;-67
2022/03/31 07:27:28;;;;;;;14.68;6.35;;;6.70;74.00;;;;;;5059576;28;20217;-66
2022/03/31 07:29:55;;;;;;;15.90;6.13;;;6.70;74.10;;;;;;5062938;28;20367;-67
2022/03/31 07:32:22;;;;;;;15.48;6.95;;;6.70;74.10;;;;;;5066638;28;20100;-67
2022/03/31 07:34:49;;;;;;;15.70;6.95;;;6.70;74.10;;;;;;5060294;28;20951;-66
2022/03/31 07:37:17;;;;;;;12.75;7.00;;;6.80;74.10;;;;;;5063504;28;20132;-68
2022/03/31 07:39:45;;;;;;;15.52;5.60;;;6.80;73.90;;;;;;5066525;28;20052;-67
2022/03/31 07:42:14;;;;;;;12.82;6.75;;;6.90;73.70;;;;;;5066175;28;20071;-67
2022/03/31 07:44:41;;;;;;;14.27;5.88;;;6.90;73.70;;;;;;5059739;28;20050;-66
2022/03/31 07:47:08;;;;;;;14.43;6.45;;;6.90;73.70;;;;;;5058565;28;20498;-65
2022/03/31 07:49:35;;;;;;;13.65;5.45;;;6.90;73.70;;;;;;5062426;28;20044;-66
2022/03/31 07:52:02;;;;;;;17.25;6.78;;;6.90;73.80;;;;;;5063171;28;20044;-66
2022/03/31 07:54:29;;;;;;;14.75;6.43;;;6.90;74.00;;;;;;5062007;28;20094;-65
2022/03/31 07:56:56;;;;;;;14.02;7.20;;;6.90;73.90;;;;;;5060076;28;20044;-66
2022/03/31 07:59:29;;;;;;;14.48;6.13;;;6.90;74.00;;;;;;5060467;28;20040;-66
2022/03/31 08:01:56;;;;;;;17.27;6.88;;;6.90;73.90;;;;;;5063195;28;20051;-67
2022/03/31 08:04:23;;;;;;;14.68;5.93;;;7.00;73.90;;;;;;5067079;28;20064;-67
2022/03/31 08:06:50;;;;;;;16.00;6.25;;;7.10;73.70;;;;;;5067196;28;20059;-66
2022/03/31 08:09:20;;;;;;;15.80;6.95;;;7.10;73.60;;;;;;5066698;28;20044;-66
2022/03/31 08:11:49;;;;;;;15.18;6.30;;;7.20;73.50;;;;;;5068125;28;20062;-66
2022/03/31 08:14:17;;;;;;;13.80;6.43;;;7.20;73.50;;;;;;5066824;28;20068;-66
2022/03/31 08:16:46;;;;;;;15.02;6.50;;;7.20;73.30;;;;;;5044539;28;20045;-65
2022/03/31 08:19:13;;;;;;;13.48;6.65;;;7.20;73.20;;;;;;5046663;28;20090;-65
2022/03/31 08:21:42;;;;;;;13.90;6.43;;;7.30;73.10;;;;;;5064193;28;20155;-66
2022/03/31 08:24:09;;;;;;;16.20;6.53;;;7.40;73.00;;;;;;5060331;28;20047;-67
2022/03/31 08:26:37;;;;;;;17.05;6.95;;;7.40;73.10;;;;;;5060693;28;20048;-65
2022/03/31 08:29:04;;;;;;;14.25;6.85;;;7.50;73.10;;;;;;5061316;28;20044;-65
2022/03/31 08:31:31;;;;;;;19.10;7.55;;;7.50;73.10;;;;;;5061399;28;20502;-67
2022/03/31 08:34:00;;;;;;;11.45;5.75;;;7.60;72.90;;;;;;5063374;28;20498;-65
2022/03/31 08:36:27;;;;;;;14.50;6.10;;;7.60;72.40;;;;;;5058615;28;20043;-67
2022/03/31 08:38:54;;;;;;;14.82;5.80;;;7.60;72.60;;;;;;5059633;28;20052;-66
2022/03/31 08:41:24;;;;;;;13.95;6.57;;;7.70;72.80;;;;;;5061834;28;20048;-66
2022/03/31 08:43:51;;;;;;;13.93;5.07;;;7.70;72.80;;;;;;5061342;28;20044;-68
2022/03/31 08:46:18;;;;;;;14.43;6.57;;;7.80;72.50;;;;;;5059488;28;20072;-67
2022/03/31 08:48:45;;;;;;;12.07;5.55;;;7.80;72.40;;;;;;5061749;28;20052;-66
2022/03/31 08:51:14;;;;;;;14.63;6.70;;;7.90;72.40;;;;;;5061990;28;20041;-68
2022/03/31 08:53:41;;;;;;;14.52;7.00;;;7.90;72.20;;;;;;5060531;28;20127;-66
2022/03/31 08:56:11;;;;;;;14.25;6.93;;;8.00;72.40;;;;;;5059803;28;20047;-67
2022/03/31 08:58:38;;;;;;;10.50;5.70;;;8.00;72.20;;;;;;5058416;28;20043;-68
2022/03/31 09:01:05;;;;;;;16.40;6.28;;;8.10;72.20;;;;;;5057563;28;20115;-67
2022/03/31 09:03:36;;;;;;;10.73;6.40;;;8.10;72.40;;;;;;5063344;28;20083;-66
2022/03/31 09:06:03;;;;;;;15.00;6.78;;;8.20;72.40;;;;;;5059129;28;20044;-67
2022/03/31 09:08:32;;;;;;;13.13;6.55;;;8.30;72.00;;;;;;5060666;28;20049;-67
2022/03/31 09:11:00;;;;;;;11.82;6.13;;;8.40;71.80;;;;;;5061001;28;20033;-67
2022/03/31 09:13:29;;;;;;;11.23;5.93;;;8.40;71.70;;;;;;5058960;28;20036;-66
2022/03/31 09:15:57;;;;;;;13.85;6.30;;;8.40;71.50;;;;;;5040991;28;20125;-67
2022/03/31 09:18:26;;;;;;;12.05;5.45;;;8.40;71.60;;;;;;5057563;28;20040;-67
2022/03/31 09:20:55;;;;;;;11.60;5.78;;;8.40;71.50;;;;;;5059501;28;20710;-67
2022/03/31 09:23:24;;;;;;;12.63;6.07;;;8.50;71.50;;;;;;5061817;28;20057;-67
2022/03/31 09:25:53;;;;;;;14.32;7.30;;;8.50;71.60;;;;;;5060188;28;20128;-67
2022/03/31 09:28:22;;;;;;;13.65;6.15;;;8.60;71.40;;;;;;5061876;28;20049;-66
2022/03/31 09:30:51;;;;;;;13.00;6.13;;;8.50;71.40;;;;;;5061291;28;20110;-66
2022/03/31 09:33:32;;;;;;;16.27;6.13;;;8.60;71.40;;;;;;5057721;28;20520;-68
2022/03/31 09:36:05;;;;;;;12.73;6.32;;;8.60;71.50;;;;;;5063045;28;20059;-66
2022/03/31 09:38:35;;;;;;;13.77;6.30;;;8.60;71.50;;;;;;5059222;28;20052;-66
2022/03/31 09:41:04;;;;;;;;;;;8.70;71.10;;;;;;5063384;28;20076;-67
2022/03/31 09:43:41;;;;;;;11.85;5.30;;;8.60;71.30;;;;;;5061006;28;19950;-67
2022/03/31 09:46:18;;;;;;;15.05;6.72;;;8.70;71.20;;;;;;5061450;28;20037;-67
2022/03/31 09:48:45;;;;;;;12.40;6.40;;;8.70;71.00;;;;;;5060600;28;20491;-69
2022/03/31 09:51:13;;;;;;;14.20;6.40;;;8.70;71.00;;;;;;5059743;28;20059;-67
2022/03/31 09:53:41;;;;;;;12.55;6.63;;;8.70;71.20;;;;;;5061468;28;20089;-67
2022/03/31 09:56:09;;;;;;;12.05;6.35;;;8.80;71.20;;;;;;5058359;28;20090;-68
2022/03/31 09:58:39;;;;;;;14.18;5.78;;;8.80;71.20;;;;;;5060876;28;20168;-69
2022/03/31 10:01:07;;;;;;;12.20;6.72;;;8.80;70.90;;;;;;5061286;28;20052;-67
2022/03/31 10:03:34;;;;;;;13.23;5.53;;;8.90;70.80;;;;;;5066936;28;20071;-68
2022/03/31 10:06:02;;;;;;;13.05;6.57;;;8.90;70.60;;;;;;5067325;28;20044;-67
2022/03/31 10:08:34;;;;;;;12.98;5.70;;;8.90;70.60;;;;;;5066615;28;20123;-67
2022/03/31 10:11:01;;;;;;;11.05;5.47;;;8.90;70.80;;;;;;5065132;28;21093;-67
2022/03/31 10:13:36;;;;;;;11.88;5.80;;;8.90;70.70;;;;;;5066198;28;20134;-68
2022/03/31 10:16:08;;;;;;;12.20;5.78;;;9.00;70.80;;;;;;5062126;28;20041;-68
2022/03/31 10:18:36;;;;;;;12.32;6.80;;;9.00;70.70;;;;;;5062171;28;20053;-67
2022/03/31 10:21:02;;;;;;;11.88;5.85;;;9.00;70.70;;;;;;5061201;28;20457;-68
2022/03/31 10:26:25;;;;;;;14.00;6.65;;;9.10;70.80;;;;;;5056762;28;20040;-68
2022/03/31 10:28:57;;;;;;;13.30;6.22;;;9.10;70.60;;;;;;5060159;28;20052;-67
2022/03/31 10:31:35;;;;;;;12.40;5.57;;;9.10;70.40;;;;;;5061961;28;20041;-68
2022/03/31 10:34:02;;;;;;;11.02;5.53;;;9.10;70.20;;;;;;5056231;28;20115;-68
2022/03/31 10:36:38;;;;;;;11.57;6.20;;;9.10;70.10;;;;;;5059655;28;20036;-67
2022/03/31 10:39:08;;;;;;;13.10;6.25;;;9.10;70.00;;;;;;5060798;28;20057;-68
2022/03/31 10:41:36;;;;;;;12.13;5.97;;;9.20;69.80;;;;;;5056516;28;20048;-68
2022/03/31 10:44:17;;;;;;;13.15;6.07;;;9.20;69.80;;;;;;5060201;28;20084;-69
2022/03/31 10:46:46;;;;;;;13.15;5.40;;;9.20;69.70;;;;;;5060627;28;20051;-69
2022/03/31 10:49:17;;;;;;;12.73;5.22;;;9.20;69.80;;;;;;5068898;28;20036;-67
2022/03/31 10:51:46;;;;;;;14.18;6.20;;;9.10;69.90;;;;;;5070719;28;20051;-67
2022/03/31 10:54:25;;;;;;;12.50;5.15;;;9.20;70.00;;;;;;5068480;28;20078;-66
2022/03/31 10:57:06;;;;;;;13.57;5.63;;;9.20;69.80;;;;;;5067890;28;20048;-69
2022/03/31 10:59:35;;;;;;;17.38;5.93;;;9.20;69.90;;;;;;5062638;28;20556;-66
2022/03/31 11:02:10;;;;;;;15.80;5.28;;;9.20;70.00;;;;;;5064792;28;20036;-67
2022/03/31 11:04:46;;;;;;;10.77;5.55;;;9.20;69.90;;;;;;5059868;28;20072;-68
2022/03/31 11:07:17;;;;;;;10.93;4.22;;;9.20;70.00;;;;;;5063680;28;20037;-67
2022/03/31 11:09:45;;;;;;;11.02;5.45;;;9.20;70.10;;;;;;5065711;28;20084;-67
2022/03/31 11:12:23;;;;;;;12.35;5.10;;;9.20;70.10;;;;;;5062948;28;20037;-67
2022/03/31 11:15:00;;;;;;;11.68;4.95;;;9.20;70.10;;;;;;5064360;28;20478;-66
2022/03/31 11:17:29;;;;;;;13.52;5.95;;;9.30;70.20;;;;;;5063769;28;20049;-67
2022/03/31 11:19:57;;;;;;;12.93;5.93;;;9.30;70.10;;;;;;5062035;28;20048;-68
2022/03/31 11:22:26;;;;;;;10.88;5.28;;;9.30;69.90;;;;;;5061435;28;20045;-66
2022/03/31 11:24:54;;;;;;;13.23;5.70;;;9.30;70.00;;;;;;5062112;28;20119;-67
2022/03/31 11:27:39;;;;;;;13.02;5.40;;;9.40;70.10;;;;;;5062673;28;20068;-68
2022/03/31 11:30:12;;;;;;;11.40;5.45;;;9.40;70.00;;;;;;5060791;28;20554;-68
2022/03/31 11:32:41;;;;;;;10.98;4.57;;;9.40;69.90;;;;;;5064017;28;20044;-68
2022/03/31 11:35:13;;;;;;;13.57;6.28;;;9.50;69.50;;;;;;5062228;28;20068;-68
2022/03/31 11:37:47;;;;;;;10.90;4.78;;;9.50;69.50;;;;;;5062330;28;20123;-66
2022/03/31 11:40:20;;;;;;;10.45;4.95;;;9.60;69.50;;;;;;5062533;28;20125;-66
2022/03/31 11:42:48;;;;;;;11.35;5.03;;;9.70;69.40;;;;;;5063934;28;20044;-68
2022/03/31 11:45:31;;;;;;;11.73;4.97;;;9.60;69.40;;;;;;5064380;28;20041;-67
2022/03/31 11:48:00;;;;;;;9.38;4.30;;;9.70;69.20;;;;;;5070171;28;20398;-67
2022/03/31 11:50:28;;;;;;;13.20;6.30;;;9.70;69.00;;;;;;5065247;28;20036;-68
2022/03/31 11:52:55;;;;;;;11.88;6.47;;;9.80;68.90;;;;;;5067501;28;20044;-68
2022/03/31 11:55:23;;;;;;;13.02;5.50;;;9.90;68.60;;;;;;5070124;28;20128;-66
2022/03/31 11:57:54;;;;;;;12.43;5.38;;;9.90;68.30;;;;;;5071266;28;20075;-66
2022/03/31 12:00:23;;;;;;;11.88;5.15;;;9.90;68.40;;;;;;5065074;28;20418;-66
2022/03/31 12:03:00;;;;;;;12.20;5.07;;;9.90;68.50;;;;;;5064525;28;21005;-68
2022/03/31 12:05:28;;;;;;;10.30;5.13;;;9.90;68.50;;;;;;5041281;28;20107;-68
2022/03/31 12:07:55;;;;;;;10.88;4.85;;;9.90;68.40;;;;;;5060163;28;20066;-68
2022/03/31 12:10:23;;;;;;;12.40;5.60;;;9.90;68.30;;;;;;5059321;28;20120;-68
2022/03/31 12:12:52;;;;;;;11.65;4.88;;;9.90;68.10;;;;;;5063056;28;20051;-67
2022/03/31 12:15:22;;;;;;;12.40;5.22;;;9.90;68.00;;;;;;5058129;28;20048;-67
2022/03/31 12:18:06;;;;;;;11.25;4.50;;;9.90;68.00;;;;;;5061739;28;20121;-67
2022/03/31 12:20:34;;;;;;;11.65;5.05;;;9.90;67.80;;;;;;5064987;28;20036;-68
2022/03/31 12:23:02;;;;;;;9.13;5.57;;;9.90;67.90;;;;;;5065993;28;20103;-67
2022/03/31 12:25:37;;;;;;;11.25;5.10;;;9.90;67.90;;;;;;5058844;28;20051;-68
2022/03/31 12:28:06;;;;;;;11.63;5.03;;;9.80;68.00;;;;;;5062455;28;20036;-68
2022/03/31 12:30:45;;;;;;;12.02;5.10;;;9.80;67.80;;;;;;5068471;28;20521;-69
2022/03/31 12:33:25;;;;;;;9.98;4.60;;;9.80;67.90;;;;;;5064249;28;20594;-68
2022/03/31 12:35:57;;;;;;;;;;;9.70;68.20;;;;;;5068357;28;21238;-67
2022/03/31 12:38:39;;;;;;;11.70;4.57;;;9.80;68.00;;;;;;5062255;28;19929;-67
2022/03/31 12:41:20;;;;;;;9.38;4.30;;;9.70;68.10;;;;;;5060744;28;20051;-68
2022/03/31 12:44:00;;;;;;;9.70;4.65;;;9.70;68.10;;;;;;5066498;28;20060;-66
2022/03/31 12:46:29;;;;;;;13.25;5.05;;;9.70;68.10;;;;;;5059705;28;20090;-67
2022/03/31 12:49:01;;;;;;;12.05;5.05;;;9.70;68.10;;;;;;5060772;28;20037;-66
2022/03/31 12:51:29;;;;;;;10.55;4.82;;;9.70;68.10;;;;;;5062727;28;20068;-67
2022/03/31 12:53:56;;;;;;;11.73;4.88;;;9.70;68.10;;;;;;5059095;28;20070;-66
2022/03/31 12:56:27;;;;;;;11.90;4.90;;;9.70;68.00;;;;;;5060969;28;20051;-67
2022/03/31 12:58:56;;;;;;;9.27;5.07;;;9.70;68.10;;;;;;5065479;28;20054;-67
2022/03/31 13:01:26;;;;;;;9.20;4.20;;;9.70;67.90;;;;;;5062895;28;20040;-67